Terminal Aerodrome Forecast
Issued by NWS

Home | Current Version | Previous Version | Graphics & Text | Print | Product List | Glossary On
Versions: 1 2 3 4 5 6 7 8 9 10 11 12 13 14 15 16 17 18 19 20 21 22 23 24 25 26 27 28 29 30 31 32
000
FTUS43 KLOT 282300
TAFORD
TAF
KORD 282340Z 2900/3006 08008KT P6SM -SHRA SCT080 BKN100 OVC150
     FM290300 13007KT P6SM SCT100 OVC150
     FM290900 15007KT P6SM BKN050 OVC080
     FM291200 17008KT P6SM VCSH BKN050 OVC080
     FM291500 19008KT P6SM SCT050 BKN100
     FM291700 19013G20KT P6SM SCT060 BKN200 PROB30 2918/2922 5SM
      TSRA BR BKN050CB
     FM300000 18012G19KT P6SM BKN050 OVC100=

USA.gov is the U.S. government's official web portal to all federal, state and local government web resources and services.